Woodsfield, Ohio
Current Conditions -  °F | °C
As of 8:53 AM on Friday 19 Dec 2014 (Local Time) from KPKB Reporting Station
Haze Haze  
Wind Chill: 29°   Ceiling: 2000
Heat Index: 29°   Visibility: 6mi
Dew Point: 23°   Wind: 0mph
Humidity: 78%   Direction: NA
Pressure: 30.28"   Gusts: NA
Location:  39.76°N, 81.12°W
Report Text: KPKB 191353Z 00000KT 6SM HZ OVC020 M02/M05 A3028 RMK AO2 SLP263 T10171050
Loading
Personal Weather Stations






























Interactive Weather Map New forecast layout! Learn more

10-Day Weather Forecast

Advertisements
Track Severe Weather on mobile